createdAt,value
2018-07-13T00:02:12.694Z,26.53
2018-07-13T00:04:41.032Z,23.50
2018-07-13T00:07:09.308Z,23.80
2018-07-13T00:09:37.630Z,24.60
2018-07-13T00:12:05.909Z,29.10
2018-07-13T00:14:34.146Z,22.33
2018-07-13T00:17:02.034Z,23.50
2018-07-13T00:19:30.252Z,28.27
2018-07-13T00:21:58.494Z,26.63
2018-07-13T00:24:26.728Z,27.33
2018-07-13T00:26:54.979Z,31.00
2018-07-13T00:29:23.240Z,25.73
2018-07-13T00:31:51.468Z,28.77
2018-07-13T00:34:19.669Z,26.83
2018-07-13T00:36:47.887Z,31.23
2018-07-13T00:39:16.112Z,26.50
2018-07-13T00:41:44.324Z,25.27
2018-07-13T00:44:12.525Z,24.27
2018-07-13T00:46:40.745Z,21.73
2018-07-13T00:49:08.928Z,26.77
2018-07-13T00:51:37.142Z,20.20
2018-07-13T00:54:05.376Z,22.17
2018-07-13T00:56:33.580Z,24.00
2018-07-13T00:59:01.801Z,20.27
2018-07-13T01:01:30.051Z,21.13
2018-07-13T01:03:58.235Z,20.10
2018-07-13T01:06:26.461Z,22.80
2018-07-13T01:08:54.667Z,26.93
2018-07-13T01:11:22.870Z,23.03
2018-07-13T01:13:51.268Z,19.33
2018-07-13T01:16:19.510Z,18.17
2018-07-13T01:18:47.728Z,21.73
2018-07-13T01:21:15.955Z,17.77
2018-07-13T01:23:44.185Z,19.67
2018-07-13T01:26:12.384Z,23.23
2018-07-13T01:28:40.612Z,19.40
2018-07-13T01:31:08.876Z,19.10
2018-07-13T01:33:37.087Z,20.93
2018-07-13T01:36:05.364Z,21.03
2018-07-13T01:38:33.572Z,17.67
2018-07-13T01:41:01.516Z,17.17
2018-07-13T01:43:29.712Z,21.00
2018-07-13T01:45:57.925Z,16.50
2018-07-13T01:48:26.152Z,16.53
2018-07-13T01:50:54.390Z,18.70
2018-07-13T01:53:22.579Z,18.30
2018-07-13T01:55:50.808Z,18.37
2018-07-13T01:58:19.013Z,16.87
2018-07-13T02:00:47.215Z,18.93
2018-07-13T02:03:15.433Z,17.57
2018-07-13T02:05:43.654Z,21.17
2018-07-13T02:08:11.865Z,22.67
2018-07-13T02:10:40.088Z,19.60
2018-07-13T02:13:08.295Z,17.27
2018-07-13T02:15:36.246Z,18.33
2018-07-13T02:18:04.680Z,17.33
2018-07-13T02:20:32.885Z,18.43
2018-07-13T02:23:01.098Z,16.80
2018-07-13T02:25:29.292Z,20.63
2018-07-13T02:27:57.543Z,16.83
2018-07-13T02:30:25.773Z,16.97
2018-07-13T02:32:54.009Z,14.70
2018-07-13T02:35:22.249Z,18.43
2018-07-13T02:37:50.463Z,16.30
2018-07-13T02:40:18.692Z,15.57
2018-07-13T02:42:46.937Z,18.27
2018-07-13T02:45:14.897Z,13.00
2018-07-13T02:47:43.109Z,14.77
2018-07-13T02:50:11.329Z,17.70
2018-07-13T02:52:39.538Z,12.40
2018-07-13T02:55:07.771Z,12.60
2018-07-13T02:57:35.988Z,12.70
2018-07-13T03:00:04.264Z,11.27
2018-07-13T03:02:32.474Z,13.30
2018-07-13T03:05:00.709Z,14.60
2018-07-13T03:07:28.924Z,13.80
2018-07-13T03:09:57.145Z,18.07
2018-07-13T03:12:25.380Z,18.93
2018-07-13T03:14:53.579Z,20.00
2018-07-13T03:17:21.773Z,20.57
2018-07-13T03:19:50.045Z,18.77
2018-07-13T03:22:18.358Z,21.50
2018-07-13T03:24:46.473Z,19.47
2018-07-13T03:27:14.999Z,17.97
2018-07-13T03:29:43.188Z,22.37
2018-07-13T03:32:11.393Z,16.27
2018-07-13T03:34:39.634Z,20.03
2018-07-13T03:37:07.833Z,23.33
2018-07-13T03:39:36.067Z,21.53
2018-07-13T03:42:04.307Z,21.50
2018-07-13T03:44:32.565Z,26.00
2018-07-13T03:47:00.947Z,31.40
2018-07-13T03:49:29.208Z,24.27
2018-07-13T03:51:57.407Z,19.20
2018-07-13T03:54:25.710Z,19.37
2018-07-13T03:56:54.986Z,21.60
2018-07-13T03:59:23.160Z,25.87
2018-07-13T04:01:51.351Z,22.43
2018-07-13T04:04:19.683Z,17.27
2018-07-13T04:06:47.888Z,22.77
2018-07-13T04:09:16.127Z,24.60
2018-07-13T04:11:44.343Z,22.33
2018-07-13T04:14:12.565Z,18.13
2018-07-13T04:16:40.737Z,21.23
2018-07-13T04:19:08.940Z,22.90
2018-07-13T04:21:37.152Z,22.67
2018-07-13T04:24:05.555Z,18.33
2018-07-13T04:26:33.993Z,21.23
2018-07-13T04:29:02.210Z,21.43
2018-07-13T04:31:30.418Z,22.63
2018-07-13T04:33:58.663Z,24.67
2018-07-13T04:36:26.877Z,28.70
2018-07-13T04:38:55.088Z,22.20
2018-07-13T04:41:23.991Z,31.53
2018-07-13T04:43:52.449Z,23.13
2018-07-13T04:46:20.703Z,24.03
2018-07-13T04:48:48.988Z,24.70
2018-07-13T04:51:17.241Z,26.20
2018-07-13T04:53:45.460Z,25.43
2018-07-13T04:56:13.742Z,26.43
2018-07-13T04:58:42.014Z,19.93
2018-07-13T05:01:10.264Z,24.37
2018-07-13T05:03:38.479Z,22.20
2018-07-13T05:06:06.790Z,23.57
2018-07-13T05:08:34.945Z,25.43
2018-07-13T05:11:03.236Z,29.83
2018-07-13T05:13:31.480Z,24.37
2018-07-13T05:15:59.746Z,23.33
2018-07-13T05:18:27.996Z,23.43
2018-07-13T05:20:56.406Z,29.33
2018-07-13T05:23:25.295Z,27.07
2018-07-13T05:25:53.541Z,26.67
2018-07-13T05:28:21.832Z,28.37
2018-07-13T05:30:50.166Z,27.47
2018-07-13T05:33:19.048Z,31.80
2018-07-13T05:35:47.270Z,28.97
2018-07-13T05:38:15.561Z,29.70
2018-07-13T05:40:43.892Z,30.83
2018-07-13T05:43:12.105Z,27.90
2018-07-13T05:45:40.312Z,30.70
2018-07-13T05:48:08.603Z,29.30
2018-07-13T05:50:36.831Z,30.27
2018-07-13T05:53:05.086Z,30.57
2018-07-13T05:55:33.344Z,31.30
2018-07-13T05:58:01.601Z,29.23
2018-07-13T06:00:30.061Z,28.67
2018-07-13T06:02:58.376Z,25.73
2018-07-13T06:05:27.316Z,28.63
2018-07-13T06:07:55.605Z,27.87
2018-07-13T06:10:24.453Z,24.17
2018-07-13T06:12:52.700Z,25.97
2018-07-13T06:15:20.901Z,22.83
2018-07-13T06:17:49.123Z,26.67
2018-07-13T06:20:17.362Z,22.10
2018-07-13T06:22:45.525Z,32.67
2018-07-13T06:25:13.819Z,49.37
2018-07-13T06:27:42.063Z,39.63
2018-07-13T06:30:10.360Z,35.37
2018-07-13T06:32:38.588Z,32.97
2018-07-13T06:35:06.796Z,29.77
2018-07-13T06:37:35.026Z,35.73
2018-07-13T06:40:03.334Z,35.43
2018-07-13T06:42:31.554Z,43.07
2018-07-13T06:45:00.013Z,36.40
2018-07-13T06:47:28.306Z,34.60
2018-07-13T06:49:56.539Z,27.60
2018-07-13T06:52:24.760Z,32.10
2018-07-13T06:54:53.017Z,31.83
2018-07-13T06:57:32.460Z,39.00
2018-07-13T07:00:01.330Z,33.07
2018-07-13T07:02:39.710Z,35.30
2018-07-13T07:06:22.762Z,32.50
2018-07-13T07:08:51.096Z,35.47
2018-07-13T07:11:19.368Z,25.20
2018-07-13T07:13:47.969Z,25.90
2018-07-13T07:16:16.201Z,28.23
2018-07-13T07:18:44.406Z,30.23
2018-07-13T07:21:12.633Z,32.03
2018-07-13T07:23:40.846Z,33.43
2018-07-13T07:26:09.229Z,34.40
2018-07-13T07:28:37.460Z,32.77
2018-07-13T07:31:05.679Z,34.43
2018-07-13T07:33:33.917Z,33.80
2018-07-13T07:36:02.152Z,28.53
2018-07-13T07:38:30.505Z,27.47
2018-07-13T07:40:58.657Z,29.03
2018-07-13T07:43:26.920Z,27.93
2018-07-13T07:45:55.167Z,22.83
2018-07-13T07:48:24.129Z,21.93
2018-07-13T07:50:52.371Z,23.60
2018-07-13T07:53:20.633Z,21.80
2018-07-13T07:55:48.883Z,19.10
2018-07-13T07:58:17.109Z,32.27
2018-07-13T08:00:45.296Z,18.60
2018-07-13T08:03:13.524Z,24.93
2018-07-13T08:05:41.755Z,24.50
2018-07-13T08:08:09.983Z,21.90
2018-07-13T08:10:38.208Z,19.33
2018-07-13T08:13:06.586Z,22.53
2018-07-13T08:15:34.923Z,21.30
2018-07-13T08:18:03.128Z,22.80
2018-07-13T08:20:33.626Z,20.50
2018-07-13T08:23:05.235Z,23.20
2018-07-13T08:25:33.456Z,20.27
2018-07-13T08:28:02.619Z,20.30
2018-07-13T08:30:39.956Z,20.87
2018-07-13T08:33:08.148Z,21.00
2018-07-13T08:35:36.356Z,16.33
2018-07-13T08:38:05.092Z,21.77
2018-07-13T08:40:33.326Z,18.37
2018-07-13T08:43:01.548Z,19.15
2018-07-13T08:45:29.873Z,17.60
2018-07-13T08:47:58.220Z,17.23
2018-07-13T08:50:26.480Z,16.05
2018-07-13T08:52:57.224Z,18.67
2018-07-13T08:55:25.479Z,15.48
2018-07-13T08:57:53.711Z,16.30
2018-07-13T09:00:21.967Z,13.72
2018-07-13T09:02:50.201Z,13.08
2018-07-13T09:05:18.417Z,13.20
2018-07-13T09:07:46.659Z,16.32
2018-07-13T09:10:14.972Z,16.70
2018-07-13T09:12:43.242Z,18.50
2018-07-13T09:15:13.005Z,14.80
2018-07-13T09:17:41.216Z,18.87
2018-07-13T09:20:11.149Z,16.65
2018-07-13T09:22:39.511Z,16.17
2018-07-13T09:25:08.356Z,14.40
2018-07-13T09:27:36.569Z,13.15
2018-07-13T09:30:05.288Z,9.83
2018-07-13T09:32:33.491Z,9.63
2018-07-13T09:35:01.701Z,10.95
2018-07-13T09:37:29.987Z,10.25
2018-07-13T09:39:58.217Z,10.10
2018-07-13T09:42:26.443Z,8.75
2018-07-13T09:44:54.650Z,9.95
2018-07-13T09:47:22.864Z,9.13
2018-07-13T09:49:51.097Z,9.85
2018-07-13T09:52:19.369Z,10.98
2018-07-13T09:54:47.569Z,6.15
2018-07-13T09:57:15.743Z,9.28
2018-07-13T09:59:43.952Z,7.67
2018-07-13T10:02:12.170Z,8.33
2018-07-13T10:04:40.370Z,8.35
2018-07-13T10:07:08.662Z,8.30
2018-07-13T10:09:36.864Z,7.72
2018-07-13T10:12:05.163Z,5.95
2018-07-13T10:14:33.578Z,8.43
2018-07-13T10:17:01.883Z,6.65
2018-07-13T10:19:30.133Z,8.28
2018-07-13T10:21:58.552Z,8.48
2018-07-13T10:24:27.257Z,8.00
2018-07-13T10:26:55.672Z,7.90
2018-07-13T10:29:31.773Z,7.95
2018-07-13T10:32:00.825Z,8.20
2018-07-13T10:34:29.066Z,8.13
2018-07-13T10:36:59.696Z,9.55
2018-07-13T10:39:27.892Z,6.53
2018-07-13T10:41:56.137Z,10.88
2018-07-13T10:44:24.489Z,7.50
2018-07-13T10:46:53.120Z,6.30
2018-07-13T10:49:21.329Z,7.60
2018-07-13T10:51:50.164Z,5.40
2018-07-13T10:54:18.360Z,9.35
2018-07-13T10:56:46.625Z,6.35
2018-07-13T10:59:14.957Z,5.62
2018-07-13T11:01:43.162Z,7.35
2018-07-13T11:04:12.760Z,7.03
2018-07-13T11:06:41.078Z,6.80
2018-07-13T11:09:10.250Z,6.03
2018-07-13T11:11:38.834Z,4.50
2018-07-13T11:14:07.262Z,7.25
2018-07-13T11:16:35.552Z,6.40
2018-07-13T11:19:03.755Z,6.58
2018-07-13T11:21:31.965Z,9.75
2018-07-13T11:24:00.197Z,6.10
2018-07-13T11:26:28.425Z,7.70
2018-07-13T11:28:56.652Z,9.08
2018-07-13T11:31:24.858Z,6.58
2018-07-13T11:33:53.079Z,8.08
2018-07-13T11:36:21.313Z,4.92
2018-07-13T11:38:49.578Z,6.12
2018-07-13T11:41:17.824Z,5.50
2018-07-13T11:43:46.055Z,4.25
2018-07-13T11:46:14.336Z,8.35
2018-07-13T11:48:42.595Z,5.90
2018-07-13T11:51:11.283Z,9.13
2018-07-13T11:53:39.728Z,7.35
2018-07-13T11:56:08.066Z,8.03
2018-07-13T11:58:36.336Z,12.03
2018-07-13T12:01:04.754Z,8.83
2018-07-13T12:03:33.365Z,7.03
2018-07-13T12:06:02.336Z,9.35
2018-07-13T12:08:31.320Z,6.00
2018-07-13T12:10:59.558Z,8.83
2018-07-13T12:13:27.502Z,8.45
2018-07-13T12:15:55.733Z,6.45
2018-07-13T12:18:23.948Z,7.85
2018-07-13T12:20:52.185Z,7.78
2018-07-13T12:23:20.421Z,5.87
2018-07-13T12:25:48.633Z,6.78
2018-07-13T12:28:17.102Z,8.25
2018-07-13T12:30:48.128Z,9.00
2018-07-13T12:33:16.375Z,5.65
2018-07-13T12:35:45.933Z,8.10
2018-07-13T12:38:15.925Z,6.45
2018-07-13T12:40:44.140Z,9.70
2018-07-13T12:43:12.420Z,5.60
2018-07-13T12:45:40.665Z,7.15
2018-07-13T12:48:08.825Z,7.22
2018-07-13T12:50:36.970Z,7.53
2018-07-13T12:53:05.893Z,8.65
2018-07-13T12:55:34.128Z,4.20
2018-07-13T12:58:02.229Z,4.60
2018-07-13T13:00:30.436Z,4.50
2018-07-13T13:02:58.644Z,4.30
2018-07-13T13:05:26.893Z,7.75
2018-07-13T13:07:55.075Z,4.33
2018-07-13T13:10:23.312Z,3.08
2018-07-13T13:12:51.484Z,10.60
2018-07-13T13:15:20.958Z,5.87
2018-07-13T13:17:49.155Z,4.75
2018-07-13T13:20:17.349Z,4.22
2018-07-13T13:22:45.551Z,4.55
2018-07-13T13:25:14.839Z,3.72
2018-07-13T13:27:44.306Z,7.55
2018-07-13T13:30:12.687Z,3.30
2018-07-13T13:32:43.908Z,5.75
2018-07-13T13:35:12.184Z,3.10
2018-07-13T13:37:41.250Z,4.55
2018-07-13T13:40:09.459Z,6.08
2018-07-13T13:42:37.698Z,4.00
2018-07-13T13:45:05.921Z,6.00
2018-07-13T13:47:34.126Z,3.87
2018-07-13T13:50:02.325Z,4.62
2018-07-13T13:52:32.446Z,4.92
2018-07-13T13:55:01.564Z,7.22
2018-07-13T13:57:30.248Z,7.72
2018-07-13T14:00:01.434Z,4.05
2018-07-13T14:02:29.665Z,4.67
2018-07-13T14:04:57.897Z,4.62
2018-07-13T14:07:26.231Z,3.20
2018-07-13T14:09:54.487Z,7.10
2018-07-13T14:12:22.911Z,4.08
2018-07-13T14:14:51.380Z,6.28
2018-07-13T14:17:21.951Z,4.28
2018-07-13T14:19:50.169Z,5.80
2018-07-13T14:22:18.399Z,5.83
2018-07-13T14:24:46.645Z,5.10
2018-07-13T14:27:14.878Z,4.25
2018-07-13T14:29:43.133Z,4.53
2018-07-13T14:32:11.378Z,4.95
2018-07-13T14:34:39.659Z,3.67
2018-07-13T14:37:07.863Z,4.37
2018-07-13T14:39:36.097Z,4.92
2018-07-13T14:42:04.321Z,4.22
2018-07-13T14:44:32.501Z,3.40
2018-07-13T14:47:00.728Z,2.77
2018-07-13T14:49:28.816Z,3.80
2018-07-13T14:51:57.042Z,4.53
2018-07-13T14:54:25.187Z,4.65
2018-07-13T14:56:53.754Z,7.13
2018-07-13T14:59:21.933Z,35.73
2018-07-13T15:01:50.113Z,6.75
2018-07-13T15:04:18.393Z,10.73
2018-07-13T15:06:46.942Z,17.70
2018-07-13T15:09:15.365Z,6.33
2018-07-13T15:11:45.824Z,8.10
2018-07-13T15:14:14.000Z,9.43
2018-07-13T15:16:42.552Z,9.07
2018-07-13T15:19:10.720Z,7.85
2018-07-13T15:21:38.885Z,6.97
2018-07-13T15:24:07.032Z,7.47
2018-07-13T15:26:35.208Z,7.73
2018-07-13T15:29:03.372Z,9.07
2018-07-13T15:31:31.521Z,7.43
2018-07-13T15:33:59.664Z,7.97
2018-07-13T15:36:27.813Z,6.03
2018-07-13T15:38:56.000Z,10.00
2018-07-13T15:41:24.150Z,8.90
2018-07-13T15:43:52.324Z,11.80
2018-07-13T15:46:20.757Z,7.20
2018-07-13T15:48:49.173Z,5.23
2018-07-13T15:51:17.360Z,5.50
2018-07-13T15:53:45.517Z,7.63
2018-07-13T15:56:13.664Z,8.07
2018-07-13T15:58:41.845Z,6.83
2018-07-13T16:01:09.976Z,4.60
2018-07-13T16:03:38.128Z,4.37
2018-07-13T16:06:06.280Z,3.37
2018-07-13T16:08:34.444Z,4.47
2018-07-13T16:11:02.633Z,4.87
2018-07-13T16:13:30.785Z,3.90
2018-07-13T16:15:59.012Z,3.57
2018-07-13T16:18:27.173Z,3.93
2018-07-13T16:20:55.477Z,4.77
2018-07-13T16:23:25.005Z,3.13
2018-07-13T16:25:53.224Z,3.80
2018-07-13T16:28:21.863Z,4.77
2018-07-13T16:30:49.924Z,5.47
2018-07-13T16:33:20.104Z,7.33
2018-07-13T16:35:48.271Z,5.30
2018-07-13T16:38:16.440Z,5.60
2018-07-13T16:40:44.364Z,3.30
2018-07-13T16:43:12.524Z,8.10
2018-07-13T16:45:41.045Z,3.53
2018-07-13T16:48:11.155Z,4.43
2018-07-13T16:50:40.805Z,3.93
2018-07-13T16:53:08.832Z,4.53
2018-07-13T16:55:37.004Z,3.33
2018-07-13T16:58:05.172Z,9.90
2018-07-13T17:00:33.350Z,7.07
2018-07-13T17:03:01.539Z,4.20
2018-07-13T17:05:29.688Z,6.63
2018-07-13T17:07:57.884Z,5.37
2018-07-13T17:10:26.176Z,5.43
2018-07-13T17:12:54.359Z,4.77
2018-07-13T17:15:22.551Z,3.97
2018-07-13T17:17:50.712Z,5.37
2018-07-13T17:20:18.987Z,4.63
2018-07-13T17:22:47.064Z,3.77
2018-07-13T17:25:15.283Z,4.70
2018-07-13T17:27:43.452Z,4.30
2018-07-13T17:30:11.835Z,3.50
2018-07-13T17:32:39.997Z,4.67
2018-07-13T17:35:08.197Z,5.17
2018-07-13T17:37:37.160Z,5.20
2018-07-13T17:40:05.494Z,3.40
2018-07-13T17:42:33.684Z,4.17
2018-07-13T17:45:01.816Z,7.20
2018-07-13T17:47:30.088Z,6.60
2018-07-13T17:49:58.244Z,5.33
2018-07-13T17:52:26.386Z,7.97
2018-07-13T17:54:56.773Z,6.03
2018-07-13T17:57:24.924Z,12.53
2018-07-13T17:59:53.068Z,2.87
2018-07-13T18:02:21.227Z,6.20
2018-07-13T18:04:49.648Z,4.03
2018-07-13T18:07:17.854Z,4.90
2018-07-13T18:09:46.274Z,6.17
2018-07-13T18:12:14.432Z,4.57
2018-07-13T18:14:42.599Z,3.10
2018-07-13T18:17:11.930Z,4.30
2018-07-13T18:19:40.088Z,3.17
2018-07-13T18:22:08.274Z,5.53
2018-07-13T18:24:36.855Z,3.90
2018-07-13T18:27:06.390Z,4.47
2018-07-13T18:29:35.157Z,3.50
2018-07-13T18:32:03.442Z,3.10
2018-07-13T18:34:31.588Z,4.23
2018-07-13T18:36:59.928Z,2.90
2018-07-13T18:39:28.317Z,5.13
2018-07-13T18:42:00.677Z,6.80
2018-07-13T18:44:28.994Z,3.87
2018-07-13T18:46:57.319Z,5.27
2018-07-13T18:49:26.149Z,4.17
2018-07-13T18:51:54.493Z,5.87
2018-07-13T18:54:22.784Z,4.13
2018-07-13T18:56:53.861Z,4.37
2018-07-13T18:59:22.939Z,7.87
2018-07-13T19:01:51.500Z,6.40
2018-07-13T19:04:19.681Z,6.53
2018-07-13T19:06:47.916Z,3.87
2018-07-13T19:09:16.781Z,3.57
2018-07-13T19:11:44.921Z,3.77
2018-07-13T19:14:13.072Z,4.23
2018-07-13T19:16:41.260Z,3.60
2018-07-13T19:19:09.509Z,2.97
2018-07-13T19:21:38.885Z,9.10
2018-07-13T19:24:07.121Z,5.27
2018-07-13T19:26:35.602Z,5.67
2018-07-13T19:29:03.804Z,5.50
2018-07-13T19:31:32.022Z,3.53
2018-07-13T19:34:00.261Z,5.17
2018-07-13T19:36:28.519Z,4.77
2018-07-13T19:39:00.285Z,4.67
2018-07-13T19:41:28.510Z,5.80
2018-07-13T19:43:56.948Z,4.23
2018-07-13T19:46:25.170Z,4.43
2018-07-13T19:48:53.386Z,5.37
2018-07-13T19:51:21.636Z,3.57
2018-07-13T19:53:49.881Z,5.40
2018-07-13T19:56:18.123Z,4.17
2018-07-13T19:58:46.421Z,4.83
2018-07-13T20:01:14.714Z,4.60
2018-07-13T20:03:43.205Z,3.73
2018-07-13T20:06:11.442Z,10.07
2018-07-13T20:08:39.699Z,6.53
2018-07-13T20:11:12.205Z,7.20
2018-07-13T20:13:40.429Z,4.37
2018-07-13T20:16:14.607Z,7.17
2018-07-13T20:18:45.264Z,4.23
2018-07-13T20:21:14.496Z,8.93
2018-07-13T20:23:42.749Z,3.77
2018-07-13T20:26:12.831Z,7.90
2018-07-13T20:28:41.202Z,6.40
2018-07-13T20:31:10.356Z,4.47
2018-07-13T20:33:38.738Z,6.63
2018-07-13T20:36:07.002Z,4.63
2018-07-13T20:38:35.248Z,6.00
2018-07-13T20:41:03.513Z,5.97
2018-07-13T20:43:31.788Z,6.40
2018-07-13T20:45:59.764Z,4.63
2018-07-13T20:48:28.819Z,4.73
2018-07-13T20:50:57.296Z,7.90
2018-07-13T20:53:25.531Z,5.60
2018-07-13T20:55:53.762Z,5.67
2018-07-13T20:58:22.030Z,4.60
2018-07-13T21:00:53.921Z,6.10
2018-07-13T21:03:26.152Z,6.07
2018-07-13T21:05:54.461Z,6.70
2018-07-13T21:08:23.264Z,6.53
2018-07-13T21:10:51.598Z,4.87
2018-07-13T21:13:19.982Z,6.53
2018-07-13T21:15:48.209Z,5.87
2018-07-13T21:18:16.472Z,5.57
2018-07-13T21:20:47.486Z,8.43
2018-07-13T21:23:15.453Z,6.37
2018-07-13T21:25:44.437Z,6.30
2018-07-13T21:28:12.742Z,6.60
2018-07-13T21:30:41.170Z,5.77
2018-07-13T21:33:13.633Z,6.33
2018-07-13T21:35:41.895Z,7.70
2018-07-13T21:38:10.172Z,5.23
2018-07-13T21:40:38.447Z,5.70
2018-07-13T21:43:06.692Z,6.87
2018-07-13T21:45:34.938Z,6.23
2018-07-13T21:48:03.149Z,6.90
2018-07-13T21:50:31.468Z,8.07
2018-07-13T21:52:59.728Z,8.43
2018-07-13T21:55:28.067Z,8.50
2018-07-13T21:57:56.292Z,10.37
2018-07-13T22:00:24.569Z,7.50
2018-07-13T22:02:53.007Z,8.57
2018-07-13T22:05:21.170Z,7.67
2018-07-13T22:07:49.364Z,7.73
2018-07-13T22:10:17.593Z,6.87
2018-07-13T22:12:45.824Z,8.30
2018-07-13T22:15:14.041Z,9.00
2018-07-13T22:17:42.276Z,7.10
2018-07-13T22:20:10.449Z,9.30
2018-07-13T22:22:38.696Z,7.67
2018-07-13T22:25:06.925Z,7.73
2018-07-13T22:27:35.153Z,7.83
2018-07-13T22:30:03.383Z,8.77
2018-07-13T22:32:31.676Z,6.33
2018-07-13T22:34:59.897Z,8.00
2018-07-13T22:37:28.137Z,6.67
2018-07-13T22:39:56.353Z,9.87
2018-07-13T22:42:24.556Z,8.33
2018-07-13T22:44:52.814Z,9.57
2018-07-13T22:47:21.179Z,6.23
2018-07-13T22:49:49.376Z,7.17
2018-07-13T22:52:17.637Z,7.03
2018-07-13T22:54:45.880Z,8.03
2018-07-13T22:57:14.109Z,9.70
2018-07-13T22:59:42.325Z,11.20
2018-07-13T23:02:10.551Z,10.73
2018-07-13T23:04:38.758Z,8.17
2018-07-13T23:07:06.724Z,8.10
2018-07-13T23:09:34.694Z,8.07
2018-07-13T23:12:02.909Z,9.30
2018-07-13T23:14:31.123Z,8.20
2018-07-13T23:16:59.356Z,10.43
2018-07-13T23:19:27.543Z,8.33
2018-07-13T23:21:55.765Z,7.47
2018-07-13T23:24:24.022Z,9.60
2018-07-13T23:26:52.245Z,9.27
2018-07-13T23:29:20.453Z,7.60
2018-07-13T23:31:48.738Z,9.13
2018-07-13T23:34:29.013Z,7.73
2018-07-13T23:36:57.237Z,7.27
2018-07-13T23:39:25.462Z,10.50
2018-07-13T23:41:53.678Z,7.30
2018-07-13T23:44:21.909Z,7.33
2018-07-13T23:46:50.140Z,8.60
2018-07-13T23:49:18.389Z,8.57
2018-07-13T23:51:46.632Z,7.13
2018-07-13T23:54:14.926Z,8.03
2018-07-13T23:56:43.125Z,8.37
2018-07-13T23:59:11.381Z,9.47
